sensor_id;sensor_type;location;lat;lon;timestamp;P1;durP1;ratioP1;P2;durP2;ratioP2
81969;SDS011;71469;51.826;4.394;2023-10-13T01:59:30;8.60;;;4.70;;
81969;SDS011;71469;51.826;4.394;2023-10-13T02:01:56;6.28;;;3.22;;
81969;SDS011;71469;51.826;4.394;2023-10-13T02:04:27;10.23;;;4.75;;
81969;SDS011;71469;51.826;4.394;2023-10-13T02:25:20;8.45;;;3.65;;
81969;SDS011;71469;51.826;4.394;2023-10-13T02:35:53;7.65;;;3.30;;
81969;SDS011;71469;51.826;4.394;2023-10-13T02:38:22;8.38;;;3.72;;
81969;SDS011;71469;51.826;4.394;2023-10-13T02:43:38;7.55;;;3.33;;
81969;SDS011;71469;51.826;4.394;2023-10-13T02:46:08;10.18;;;3.90;;
81969;SDS011;71469;51.826;4.394;2023-10-13T02:48:34;10.30;;;3.85;;
81969;SDS011;71469;51.826;4.394;2023-10-13T02:51:06;7.05;;;3.70;;
81969;SDS011;71469;51.826;4.394;2023-10-13T02:53:44;13.50;;;3.55;;
81969;SDS011;71469;51.826;4.394;2023-10-13T02:56:14;7.90;;;3.88;;
81969;SDS011;71469;51.826;4.394;2023-10-13T02:58:47;8.85;;;3.60;;
81969;SDS011;71469;51.826;4.394;2023-10-13T03:01:27;6.47;;;3.30;;
81969;SDS011;71469;51.826;4.394;2023-10-13T03:03:56;9.65;;;3.88;;
81969;SDS011;71469;51.826;4.394;2023-10-13T03:06:24;8.35;;;3.67;;
81969;SDS011;71469;51.826;4.394;2023-10-13T03:09:01;7.18;;;3.28;;
81969;SDS011;71469;51.826;4.394;2023-10-13T03:11:44;9.07;;;4.10;;
81969;SDS011;71469;51.826;4.394;2023-10-13T03:14:17;7.20;;;4.07;;
81969;SDS011;71469;51.826;4.394;2023-10-13T03:17:04;9.38;;;4.85;;
81969;SDS011;71469;51.826;4.394;2023-10-13T03:19:43;7.78;;;4.15;;
81969;SDS011;71469;51.826;4.394;2023-10-13T03:35:16;7.88;;;3.63;;
81969;SDS011;71469;51.826;4.394;2023-10-13T03:37:53;9.02;;;4.50;;
81969;SDS011;71469;51.826;4.394;2023-10-13T03:58:26;6.03;;;3.40;;
81969;SDS011;71469;51.826;4.394;2023-10-13T04:00:51;5.88;;;2.80;;
81969;SDS011;71469;51.826;4.394;2023-10-13T04:03:18;4.25;;;2.38;;
81969;SDS011;71469;51.826;4.394;2023-10-13T04:05:44;6.45;;;2.65;;
81969;SDS011;71469;51.826;4.394;2023-10-13T04:08:25;6.30;;;3.72;;
81969;SDS011;71469;51.826;4.394;2023-10-13T04:10:54;6.25;;;3.38;;
81969;SDS011;71469;51.826;4.394;2023-10-13T04:13:22;6.63;;;3.72;;
81969;SDS011;71469;51.826;4.394;2023-10-13T04:16:07;6.60;;;4.72;;
81969;SDS011;71469;51.826;4.394;2023-10-13T04:18:51;8.88;;;5.38;;
81969;SDS011;71469;51.826;4.394;2023-10-13T04:21:20;9.38;;;5.63;;
81969;SDS011;71469;51.826;4.394;2023-10-13T04:24:10;10.65;;;6.38;;
81969;SDS011;71469;51.826;4.394;2023-10-13T04:27:04;9.30;;;6.68;;
81969;SDS011;71469;51.826;4.394;2023-10-13T04:29:36;10.98;;;6.90;;
81969;SDS011;71469;51.826;4.394;2023-10-13T04:32:22;12.38;;;7.72;;
81969;SDS011;71469;51.826;4.394;2023-10-13T04:35:10;11.18;;;7.18;;
81969;SDS011;71469;51.826;4.394;2023-10-13T04:37:39;10.43;;;5.78;;
81969;SDS011;71469;51.826;4.394;2023-10-13T04:40:26;9.80;;;5.13;;
81969;SDS011;71469;51.826;4.394;2023-10-13T04:42:53;8.05;;;4.93;;
81969;SDS011;71469;51.826;4.394;2023-10-13T04:45:21;7.88;;;3.58;;
81969;SDS011;71469;51.826;4.394;2023-10-13T04:47:56;7.80;;;4.38;;
81969;SDS011;71469;51.826;4.394;2023-10-13T04:50:42;7.15;;;3.75;;
81969;SDS011;71469;51.826;4.394;2023-10-13T04:53:46;11.88;;;4.93;;
81969;SDS011;71469;51.826;4.394;2023-10-13T04:56:32;6.22;;;3.38;;
81969;SDS011;71469;51.826;4.394;2023-10-13T04:59:17;6.90;;;3.22;;
81969;SDS011;71469;51.826;4.394;2023-10-13T05:01:43;7.28;;;3.05;;
81969;SDS011;71469;51.826;4.394;2023-10-13T05:04:27;5.18;;;2.90;;
81969;SDS011;71469;51.826;4.394;2023-10-13T05:07:12;6.95;;;3.20;;
81969;SDS011;71469;51.826;4.394;2023-10-13T05:09:56;8.80;;;4.82;;
81969;SDS011;71469;51.826;4.394;2023-10-13T05:12:42;7.15;;;2.90;;
81969;SDS011;71469;51.826;4.394;2023-10-13T05:15:26;8.57;;;3.28;;
81969;SDS011;71469;51.826;4.394;2023-10-13T05:18:10;8.88;;;3.97;;
81969;SDS011;71469;51.826;4.394;2023-10-13T05:20:56;9.32;;;3.13;;
81969;SDS011;71469;51.826;4.394;2023-10-13T05:23:40;4.93;;;2.70;;
81969;SDS011;71469;51.826;4.394;2023-10-13T05:26:24;7.97;;;3.38;;
81969;SDS011;71469;51.826;4.394;2023-10-13T05:29:08;4.75;;;2.35;;
81969;SDS011;71469;51.826;4.394;2023-10-13T05:31:52;6.70;;;3.00;;
81969;SDS011;71469;51.826;4.394;2023-10-13T05:52:43;8.63;;;3.78;;
81969;SDS011;71469;51.826;4.394;2023-10-13T05:55:21;8.85;;;3.92;;
81969;SDS011;71469;51.826;4.394;2023-10-13T05:58:11;9.88;;;4.43;;
81969;SDS011;71469;51.826;4.394;2023-10-13T06:00:56;9.57;;;5.07;;
81969;SDS011;71469;51.826;4.394;2023-10-13T06:03:49;6.50;;;4.45;;
81969;SDS011;71469;51.826;4.394;2023-10-13T06:06:33;11.77;;;5.43;;
81969;SDS011;71469;51.826;4.394;2023-10-13T06:09:17;11.15;;;5.65;;
81969;SDS011;71469;51.826;4.394;2023-10-13T06:12:01;11.65;;;7.57;;
81969;SDS011;71469;51.826;4.394;2023-10-13T06:17:20;10.38;;;6.18;;
81969;SDS011;71469;51.826;4.394;2023-10-13T06:20:07;12.15;;;6.45;;
81969;SDS011;71469;51.826;4.394;2023-10-13T06:22:51;12.13;;;5.63;;
81969;SDS011;71469;51.826;4.394;2023-10-13T06:25:35;8.70;;;5.63;;
81969;SDS011;71469;51.826;4.394;2023-10-13T06:28:25;9.88;;;5.32;;
81969;SDS011;71469;51.826;4.394;2023-10-13T06:31:27;10.70;;;5.10;;
81969;SDS011;71469;51.826;4.394;2023-10-13T06:39:40;11.60;;;5.10;;
81969;SDS011;71469;51.826;4.394;2023-10-13T06:42:06;9.15;;;5.25;;
81969;SDS011;71469;51.826;4.394;2023-10-13T06:44:31;10.90;;;5.47;;
81969;SDS011;71469;51.826;4.394;2023-10-13T06:46:58;10.60;;;5.35;;
81969;SDS011;71469;51.826;4.394;2023-10-13T08:36:35;6.82;;;3.72;;
81969;SDS011;71469;51.826;4.394;2023-10-13T09:03:29;11.48;;;4.43;;
81969;SDS011;71469;51.826;4.394;2023-10-13T09:05:55;12.02;;;4.28;;
81969;SDS011;71469;51.826;4.394;2023-10-13T09:08:27;9.55;;;4.38;;
81969;SDS011;71469;51.826;4.394;2023-10-13T09:16:32;7.57;;;3.73;;
81969;SDS011;71469;51.826;4.394;2023-10-13T09:19:14;11.98;;;4.85;;
81969;SDS011;71469;51.826;4.394;2023-10-13T09:21:50;10.40;;;4.45;;
81969;SDS011;71469;51.826;4.394;2023-10-13T09:24:25;11.00;;;4.55;;
81969;SDS011;71469;51.826;4.394;2023-10-13T09:27:02;8.35;;;4.22;;
81969;SDS011;71469;51.826;4.394;2023-10-13T09:29:38;8.65;;;4.13;;
81969;SDS011;71469;51.826;4.394;2023-10-13T09:32:13;12.43;;;4.55;;
81969;SDS011;71469;51.826;4.394;2023-10-13T09:42:35;14.50;;;4.40;;
81969;SDS011;71469;51.826;4.394;2023-10-13T09:55:28;7.75;;;4.50;;
81969;SDS011;71469;51.826;4.394;2023-10-13T10:03:23;10.93;;;4.30;;
81969;SDS011;71469;51.826;4.394;2023-10-13T10:09:33;10.48;;;4.88;;
81969;SDS011;71469;51.826;4.394;2023-10-13T10:12:41;8.52;;;4.07;;
81969;SDS011;71469;51.826;4.394;2023-10-13T10:18:17;12.52;;;5.07;;
81969;SDS011;71469;51.826;4.394;2023-10-13T10:21:02;9.98;;;4.93;;
81969;SDS011;71469;51.826;4.394;2023-10-13T10:23:52;11.57;;;4.78;;
81969;SDS011;71469;51.826;4.394;2023-10-13T10:32:11;11.10;;;5.43;;
81969;SDS011;71469;51.826;4.394;2023-10-13T10:37:13;11.05;;;5.30;;
81969;SDS011;71469;51.826;4.394;2023-10-13T10:55:41;8.25;;;4.63;;
81969;SDS011;71469;51.826;4.394;2023-10-13T10:58:13;9.88;;;4.13;;
81969;SDS011;71469;51.826;4.394;2023-10-13T11:01:09;11.48;;;4.60;;
81969;SDS011;71469;51.826;4.394;2023-10-13T11:03:37;10.27;;;4.63;;
81969;SDS011;71469;51.826;4.394;2023-10-13T11:06:11;9.88;;;4.63;;
81969;SDS011;71469;51.826;4.394;2023-10-13T11:08:45;12.07;;;4.35;;
81969;SDS011;71469;51.826;4.394;2023-10-13T11:11:27;10.10;;;4.38;;
81969;SDS011;71469;51.826;4.394;2023-10-13T11:13:59;8.27;;;4.32;;
81969;SDS011;71469;51.826;4.394;2023-10-13T11:16:49;11.95;;;4.85;;
81969;SDS011;71469;51.826;4.394;2023-10-13T11:19:49;14.65;;;5.88;;
81969;SDS011;71469;51.826;4.394;2023-10-13T11:22:21;11.20;;;5.00;;
81969;SDS011;71469;51.826;4.394;2023-10-13T11:24:59;9.20;;;5.15;;
81969;SDS011;71469;51.826;4.394;2023-10-13T11:27:55;10.30;;;4.50;;
81969;SDS011;71469;51.826;4.394;2023-10-13T11:30:32;9.60;;;4.95;;
81969;SDS011;71469;51.826;4.394;2023-10-13T11:33:06;11.98;;;5.40;;
81969;SDS011;71469;51.826;4.394;2023-10-13T11:35:33;13.07;;;5.47;;
81969;SDS011;71469;51.826;4.394;2023-10-13T11:38:27;8.77;;;4.40;;
81969;SDS011;71469;51.826;4.394;2023-10-13T11:41:33;11.57;;;4.07;;
81969;SDS011;71469;51.826;4.394;2023-10-13T11:44:10;12.93;;;5.03;;
81969;SDS011;71469;51.826;4.394;2023-10-13T11:46:38;13.82;;;4.63;;
81969;SDS011;71469;51.826;4.394;2023-10-13T11:49:28;16.40;;;5.57;;
81969;SDS011;71469;51.826;4.394;2023-10-13T11:52:12;11.18;;;5.25;;
81969;SDS011;71469;51.826;4.394;2023-10-13T11:54:48;10.63;;;4.88;;
81969;SDS011;71469;51.826;4.394;2023-10-13T11:59:52;11.18;;;4.45;;
81969;SDS011;71469;51.826;4.394;2023-10-13T12:05:18;12.85;;;5.22;;
81969;SDS011;71469;51.826;4.394;2023-10-13T12:07:55;9.75;;;4.43;;
81969;SDS011;71469;51.826;4.394;2023-10-13T12:10:28;7.07;;;4.47;;
81969;SDS011;71469;51.826;4.394;2023-10-13T12:13:00;10.23;;;4.90;;
81969;SDS011;71469;51.826;4.394;2023-10-13T12:15:35;13.68;;;5.25;;
81969;SDS011;71469;51.826;4.394;2023-10-13T12:18:22;16.70;;;5.55;;
81969;SDS011;71469;51.826;4.394;2023-10-13T12:20:48;20.15;;;5.40;;
81969;SDS011;71469;51.826;4.394;2023-10-13T12:23:14;9.73;;;5.10;;
81969;SDS011;71469;51.826;4.394;2023-10-13T12:25:47;9.77;;;5.43;;
81969;SDS011;71469;51.826;4.394;2023-10-13T12:28:39;13.45;;;4.85;;
81969;SDS011;71469;51.826;4.394;2023-10-13T12:31:32;9.70;;;4.85;;
81969;SDS011;71469;51.826;4.394;2023-10-13T12:34:05;14.10;;;5.55;;
81969;SDS011;71469;51.826;4.394;2023-10-13T12:36:43;10.10;;;5.20;;
81969;SDS011;71469;51.826;4.394;2023-10-13T12:39:19;11.45;;;5.25;;
81969;SDS011;71469;51.826;4.394;2023-10-13T12:42:06;10.93;;;5.40;;
81969;SDS011;71469;51.826;4.394;2023-10-13T12:44:56;10.20;;;4.72;;
81969;SDS011;71469;51.826;4.394;2023-10-13T12:47:52;12.93;;;5.35;;
81969;SDS011;71469;51.826;4.394;2023-10-13T12:50:39;12.57;;;5.78;;
81969;SDS011;71469;51.826;4.394;2023-10-13T12:53:22;11.30;;;5.55;;
81969;SDS011;71469;51.826;4.394;2023-10-13T12:55:48;10.43;;;5.70;;
81969;SDS011;71469;51.826;4.394;2023-10-13T13:01:20;15.57;;;5.53;;
81969;SDS011;71469;51.826;4.394;2023-10-13T13:03:59;9.70;;;5.65;;
81969;SDS011;71469;51.826;4.394;2023-10-13T13:06:29;11.65;;;5.40;;
81969;SDS011;71469;51.826;4.394;2023-10-13T13:08:56;15.90;;;6.85;;
81969;SDS011;71469;51.826;4.394;2023-10-13T13:11:25;12.07;;;5.50;;
81969;SDS011;71469;51.826;4.394;2023-10-13T13:14:16;12.43;;;5.07;;
81969;SDS011;71469;51.826;4.394;2023-10-13T13:16:42;13.47;;;5.53;;
81969;SDS011;71469;51.826;4.394;2023-10-13T13:19:12;11.10;;;5.70;;
81969;SDS011;71469;51.826;4.394;2023-10-13T13:22:08;11.02;;;4.65;;
81969;SDS011;71469;51.826;4.394;2023-10-13T13:24:40;12.20;;;5.90;;
81969;SDS011;71469;51.826;4.394;2023-10-13T13:27:25;16.27;;;7.85;;
81969;SDS011;71469;51.826;4.394;2023-10-13T13:30:03;13.25;;;5.75;;
81969;SDS011;71469;51.826;4.394;2023-10-13T13:32:39;14.13;;;5.57;;
81969;SDS011;71469;51.826;4.394;2023-10-13T13:35:07;11.77;;;5.13;;
81969;SDS011;71469;51.826;4.394;2023-10-13T13:40:38;14.18;;;5.57;;
81969;SDS011;71469;51.826;4.394;2023-10-13T13:45:39;9.95;;;4.78;;
81969;SDS011;71469;51.826;4.394;2023-10-13T13:53:17;9.90;;;4.32;;
81969;SDS011;71469;51.826;4.394;2023-10-13T13:55:54;8.30;;;3.85;;
81969;SDS011;71469;51.826;4.394;2023-10-13T13:58:29;6.00;;;2.75;;
81969;SDS011;71469;51.826;4.394;2023-10-13T14:01:07;9.63;;;3.22;;
81969;SDS011;71469;51.826;4.394;2023-10-13T14:03:42;11.10;;;3.20;;
81969;SDS011;71469;51.826;4.394;2023-10-13T14:06:14;8.60;;;2.70;;
81969;SDS011;71469;51.826;4.394;2023-10-13T14:12:02;6.90;;;3.28;;
81969;SDS011;71469;51.826;4.394;2023-10-13T14:14:47;8.48;;;3.65;;
81969;SDS011;71469;51.826;4.394;2023-10-13T14:17:21;8.02;;;2.85;;
81969;SDS011;71469;51.826;4.394;2023-10-13T14:25:10;7.43;;;3.47;;
81969;SDS011;71469;51.826;4.394;2023-10-13T14:27:41;16.52;;;4.38;;
81969;SDS011;71469;51.826;4.394;2023-10-13T14:30:13;7.65;;;3.47;;
81969;SDS011;71469;51.826;4.394;2023-10-13T14:32:47;10.80;;;3.72;;
81969;SDS011;71469;51.826;4.394;2023-10-13T14:35:38;8.50;;;3.90;;
81969;SDS011;71469;51.826;4.394;2023-10-13T14:38:07;14.43;;;4.57;;
81969;SDS011;71469;51.826;4.394;2023-10-13T14:56:13;13.02;;;5.03;;
81969;SDS011;71469;51.826;4.394;2023-10-13T14:59:09;18.00;;;5.10;;
81969;SDS011;71469;51.826;4.394;2023-10-13T15:01:42;17.63;;;4.75;;
81969;SDS011;71469;51.826;4.394;2023-10-13T15:04:08;11.43;;;4.70;;
81969;SDS011;71469;51.826;4.394;2023-10-13T15:09:09;13.40;;;4.80;;
81969;SDS011;71469;51.826;4.394;2023-10-13T15:14:12;15.57;;;4.97;;
81969;SDS011;71469;51.826;4.394;2023-10-13T15:16:38;14.88;;;5.05;;
81969;SDS011;71469;51.826;4.394;2023-10-13T15:19:03;14.30;;;6.13;;
81969;SDS011;71469;51.826;4.394;2023-10-13T15:21:30;10.27;;;5.03;;
81969;SDS011;71469;51.826;4.394;2023-10-13T15:24:08;11.75;;;4.10;;
81969;SDS011;71469;51.826;4.394;2023-10-13T15:26:41;16.05;;;4.63;;
81969;SDS011;71469;51.826;4.394;2023-10-13T15:47:14;8.02;;;4.85;;
81969;SDS011;71469;51.826;4.394;2023-10-13T15:49:44;11.80;;;4.72;;
81969;SDS011;71469;51.826;4.394;2023-10-13T15:52:09;8.33;;;3.87;;
81969;SDS011;71469;51.826;4.394;2023-10-13T15:54:34;8.10;;;3.70;;
81969;SDS011;71469;51.826;4.394;2023-10-13T15:57:01;8.27;;;3.63;;
81969;SDS011;71469;51.826;4.394;2023-10-13T15:59:31;12.48;;;4.18;;
81969;SDS011;71469;51.826;4.394;2023-10-13T16:01:59;11.52;;;4.13;;
81969;SDS011;71469;51.826;4.394;2023-10-13T16:04:27;10.35;;;4.78;;
81969;SDS011;71469;51.826;4.394;2023-10-13T16:06:52;8.23;;;3.90;;
81969;SDS011;71469;51.826;4.394;2023-10-13T16:09:17;10.50;;;3.90;;
81969;SDS011;71469;51.826;4.394;2023-10-13T16:11:50;9.35;;;3.72;;
81969;SDS011;71469;51.826;4.394;2023-10-13T16:14:16;6.75;;;3.63;;
81969;SDS011;71469;51.826;4.394;2023-10-13T16:16:48;6.95;;;3.30;;
81969;SDS011;71469;51.826;4.394;2023-10-13T16:19:15;8.85;;;3.97;;
81969;SDS011;71469;51.826;4.394;2023-10-13T16:21:48;9.20;;;4.38;;
81969;SDS011;71469;51.826;4.394;2023-10-13T16:24:14;6.40;;;3.33;;
81969;SDS011;71469;51.826;4.394;2023-10-13T16:26:43;11.02;;;4.07;;
81969;SDS011;71469;51.826;4.394;2023-10-13T16:29:15;10.23;;;4.20;;
81969;SDS011;71469;51.826;4.394;2023-10-13T16:31:41;8.60;;;4.45;;
81969;SDS011;71469;51.826;4.394;2023-10-13T16:34:12;12.48;;;5.03;;
81969;SDS011;71469;51.826;4.394;2023-10-13T16:36:59;10.55;;;5.63;;
81969;SDS011;71469;51.826;4.394;2023-10-13T17:05:25;12.93;;;5.07;;
81969;SDS011;71469;51.826;4.394;2023-10-13T17:07:52;12.98;;;5.80;;
81969;SDS011;71469;51.826;4.394;2023-10-13T17:10:18;14.05;;;5.10;;
81969;SDS011;71469;51.826;4.394;2023-10-13T17:12:44;15.48;;;6.20;;
81969;SDS011;71469;51.826;4.394;2023-10-13T17:15:11;12.73;;;6.03;;
81969;SDS011;71469;51.826;4.394;2023-10-13T17:17:45;15.43;;;6.45;;
81969;SDS011;71469;51.826;4.394;2023-10-13T17:20:12;10.98;;;5.95;;
81969;SDS011;71469;51.826;4.394;2023-10-13T17:22:39;15.07;;;6.25;;
81969;SDS011;71469;51.826;4.394;2023-10-13T17:25:13;14.65;;;5.80;;
81969;SDS011;71469;51.826;4.394;2023-10-13T17:40:37;8.18;;;4.75;;
81969;SDS011;71469;51.826;4.394;2023-10-13T17:43:04;10.57;;;5.63;;
81969;SDS011;71469;51.826;4.394;2023-10-13T17:45:31;13.20;;;5.57;;
81969;SDS011;71469;51.826;4.394;2023-10-13T17:48:06;9.68;;;5.35;;
81969;SDS011;71469;51.826;4.394;2023-10-13T18:03:27;9.82;;;3.97;;
81969;SDS011;71469;51.826;4.394;2023-10-13T18:06:01;8.07;;;4.10;;
81969;SDS011;71469;51.826;4.394;2023-10-13T18:08:27;8.48;;;3.47;;
81969;SDS011;71469;51.826;4.394;2023-10-13T18:10:54;12.63;;;4.88;;
81969;SDS011;71469;51.826;4.394;2023-10-13T18:34:02;7.75;;;4.93;;
81969;SDS011;71469;51.826;4.394;2023-10-13T18:36:29;10.95;;;5.75;;
81969;SDS011;71469;51.826;4.394;2023-10-13T18:39:13;10.63;;;4.47;;
81969;SDS011;71469;51.826;4.394;2023-10-13T18:41:45;11.25;;;5.88;;
81969;SDS011;71469;51.826;4.394;2023-10-13T18:44:13;15.18;;;6.38;;
81969;SDS011;71469;51.826;4.394;2023-10-13T18:46:38;10.82;;;6.30;;
81969;SDS011;71469;51.826;4.394;2023-10-13T18:51:41;13.43;;;6.93;;
81969;SDS011;71469;51.826;4.394;2023-10-13T19:11:43;12.18;;;8.02;;
81969;SDS011;71469;51.826;4.394;2023-10-13T19:19:20;18.02;;;9.20;;
81969;SDS011;71469;51.826;4.394;2023-10-13T19:21:50;14.98;;;9.38;;
81969;SDS011;71469;51.826;4.394;2023-10-13T19:24:22;16.00;;;9.20;;
81969;SDS011;71469;51.826;4.394;2023-10-13T19:29:25;17.55;;;9.57;;
81969;SDS011;71469;51.826;4.394;2023-10-13T19:31:51;17.05;;;8.35;;
81969;SDS011;71469;51.826;4.394;2023-10-13T19:34:16;19.38;;;10.38;;
81969;SDS011;71469;51.826;4.394;2023-10-13T19:36:45;17.27;;;8.05;;
81969;SDS011;71469;51.826;4.394;2023-10-13T19:39:10;8.87;;;5.20;;
81969;SDS011;71469;51.826;4.394;2023-10-13T19:41:44;13.25;;;6.50;;
81969;SDS011;71469;51.826;4.394;2023-10-13T19:44:10;10.55;;;6.57;;
81969;SDS011;71469;51.826;4.394;2023-10-13T19:46:40;12.98;;;7.28;;
81969;SDS011;71469;51.826;4.394;2023-10-13T19:49:06;10.52;;;5.90;;
81969;SDS011;71469;51.826;4.394;2023-10-13T19:51:33;9.95;;;6.30;;
81969;SDS011;71469;51.826;4.394;2023-10-13T19:54:17;11.02;;;6.30;;
81969;SDS011;71469;51.826;4.394;2023-10-13T19:56:42;10.38;;;6.43;;
81969;SDS011;71469;51.826;4.394;2023-10-13T19:59:09;11.53;;;7.50;;
81969;SDS011;71469;51.826;4.394;2023-10-13T20:01:38;12.50;;;8.93;;
81969;SDS011;71469;51.826;4.394;2023-10-13T20:04:04;14.55;;;8.98;;
81969;SDS011;71469;51.826;4.394;2023-10-13T20:06:31;13.98;;;8.85;;
81969;SDS011;71469;51.826;4.394;2023-10-13T20:08:58;14.15;;;10.43;;
81969;SDS011;71469;51.826;4.394;2023-10-13T20:11:35;14.93;;;8.13;;
81969;SDS011;71469;51.826;4.394;2023-10-13T20:14:00;13.27;;;9.30;;
81969;SDS011;71469;51.826;4.394;2023-10-13T20:16:26;16.65;;;10.30;;
81969;SDS011;71469;51.826;4.394;2023-10-13T20:18:55;17.13;;;9.38;;
81969;SDS011;71469;51.826;4.394;2023-10-13T20:21:26;18.92;;;9.63;;
81969;SDS011;71469;51.826;4.394;2023-10-13T20:23:56;17.35;;;9.43;;
81969;SDS011;71469;51.826;4.394;2023-10-13T20:26:27;17.67;;;8.73;;
81969;SDS011;71469;51.826;4.394;2023-10-13T20:29:02;15.88;;;6.95;;
81969;SDS011;71469;51.826;4.394;2023-10-13T20:31:32;12.50;;;6.15;;
81969;SDS011;71469;51.826;4.394;2023-10-13T20:34:01;12.75;;;6.15;;
81969;SDS011;71469;51.826;4.394;2023-10-13T20:36:27;10.13;;;5.35;;
81969;SDS011;71469;51.826;4.394;2023-10-13T20:38:55;13.13;;;5.10;;
81969;SDS011;71469;51.826;4.394;2023-10-13T20:41:22;10.30;;;4.35;;
81969;SDS011;71469;51.826;4.394;2023-10-13T20:43:49;10.27;;;4.47;;
81969;SDS011;71469;51.826;4.394;2023-10-13T20:46:16;11.77;;;3.83;;
81969;SDS011;71469;51.826;4.394;2023-10-13T20:48:50;12.20;;;4.53;;
81969;SDS011;71469;51.826;4.394;2023-10-13T20:51:25;13.57;;;4.50;;
81969;SDS011;71469;51.826;4.394;2023-10-13T20:53:53;10.27;;;4.65;;
81969;SDS011;71469;51.826;4.394;2023-10-13T20:56:27;12.45;;;4.68;;
81969;SDS011;71469;51.826;4.394;2023-10-13T20:58:58;13.65;;;6.80;;
81969;SDS011;71469;51.826;4.394;2023-10-13T21:01:24;10.57;;;5.30;;
81969;SDS011;71469;51.826;4.394;2023-10-13T21:03:54;14.18;;;6.30;;
81969;SDS011;71469;51.826;4.394;2023-10-13T21:06:23;15.50;;;6.60;;
81969;SDS011;71469;51.826;4.394;2023-10-13T21:11:23;15.10;;;6.90;;
81969;SDS011;71469;51.826;4.394;2023-10-13T21:13:53;16.98;;;7.90;;
81969;SDS011;71469;51.826;4.394;2023-10-13T21:16:19;12.90;;;6.88;;
81969;SDS011;71469;51.826;4.394;2023-10-13T21:23:59;14.10;;;5.75;;
81969;SDS011;71469;51.826;4.394;2023-10-13T21:29:13;10.55;;;3.88;;
81969;SDS011;71469;51.826;4.394;2023-10-13T21:44:49;4.80;;;0.55;;
81969;SDS011;71469;51.826;4.394;2023-10-13T21:47:21;2.30;;;0.28;;
81969;SDS011;71469;51.826;4.394;2023-10-13T21:49:49;7.50;;;0.80;;
81969;SDS011;71469;51.826;4.394;2023-10-13T22:13:05;3.13;;;0.40;;
81969;SDS011;71469;51.826;4.394;2023-10-13T22:18:07;2.67;;;0.30;;
81969;SDS011;71469;51.826;4.394;2023-10-13T22:20:33;3.22;;;0.43;;
81969;SDS011;71469;51.826;4.394;2023-10-13T22:22:59;1.98;;;0.40;;
81969;SDS011;71469;51.826;4.394;2023-10-13T22:25:26;1.95;;;0.30;;
81969;SDS011;71469;51.826;4.394;2023-10-13T22:27:51;1.73;;;0.60;;
81969;SDS011;71469;51.826;4.394;2023-10-13T22:30:17;0.73;;;0.47;;
81969;SDS011;71469;51.826;4.394;2023-10-13T22:32:43;4.03;;;0.68;;
81969;SDS011;71469;51.826;4.394;2023-10-13T22:40:23;4.60;;;0.50;;
81969;SDS011;71469;51.826;4.394;2023-10-13T22:42:49;2.67;;;0.63;;
81969;SDS011;71469;51.826;4.394;2023-10-13T22:45:16;1.67;;;0.70;;
81969;SDS011;71469;51.826;4.394;2023-10-13T22:47:51;1.90;;;0.10;;
81969;SDS011;71469;51.826;4.394;2023-10-13T22:50:18;1.98;;;0.32;;
81969;SDS011;71469;51.826;4.394;2023-10-13T22:52:46;2.85;;;0.50;;
81969;SDS011;71469;51.826;4.394;2023-10-13T22:55:18;3.22;;;0.45;;
81969;SDS011;71469;51.826;4.394;2023-10-13T23:22:12;5.68;;;0.60;;
81969;SDS011;71469;51.826;4.394;2023-10-13T23:27:14;1.13;;;0.40;;
81969;SDS011;71469;51.826;4.394;2023-10-13T23:33:09;4.05;;;0.50;;
